Time;durP1;ratioP1;P1;durP2;ratioP2;P2;SDS_P1;SDS_P2;PMS_P1;PMS_P2;Temp;Humidity;BMP_temperature;BMP_pressure;BME280_temperature;BME280_humidity;BME280_pressure;Samples;Min_cycle;Max_cycle;Signal;HPM_P1;HPM_P2
2021/01/29 00:01:37;;;;;;;13.63;10.07;;;1.60;99.90;;;;;;4890090;28;20270;-76
2021/01/29 00:03:59;;;;;;;13.60;9.77;;;;;;;;;;4880095;28;20259;-78
2021/01/29 00:06:21;;;;;;;12.17;9.37;;;;;;;;;;4884460;28;20570;-79
2021/01/29 00:08:43;;;;;;;15.57;10.40;;;;;;;;;;4886894;28;20189;-78
2021/01/29 00:11:06;;;;;;;13.53;9.17;;;;;;;;;;4886905;28;20185;-77
2021/01/29 00:13:29;;;;;;;14.10;10.63;;;;;;;;;;4879311;28;20219;-79
2021/01/29 00:15:52;;;;;;;16.40;10.83;;;1.60;99.90;;;;;;4886878;28;20212;-76
2021/01/29 00:18:15;;;;;;;12.63;8.80;;;1.60;99.90;;;;;;4884550;28;20208;-78
2021/01/29 00:20:37;;;;;;;13.70;10.20;;;;;;;;;;4889697;28;20724;-77
2021/01/29 00:23:00;;;;;;;14.87;10.70;;;;;;;;;;4886403;28;20246;-78
2021/01/29 00:25:25;;;;;;;14.93;10.63;;;1.60;99.90;;;;;;4885850;28;20189;-78
2021/01/29 00:27:47;;;;;;;14.60;10.97;;;;;;;;;;4882377;28;20626;-79
2021/01/29 00:30:13;;;;;;;15.47;10.53;;;1.60;99.90;;;;;;4884360;28;20181;-78
2021/01/29 00:32:35;;;;;;;15.17;10.33;;;;;;;;;;4885900;28;20197;-79
2021/01/29 00:34:58;;;;;;;16.17;10.80;;;1.60;99.90;;;;;;4883283;28;20684;-79
2021/01/29 00:37:20;;;;;;;14.70;10.70;;;;;;;;;;4886194;28;20310;-79
2021/01/29 00:39:43;;;;;;;14.97;10.47;;;;;;;;;;4886555;28;20188;-79
2021/01/29 00:42:05;;;;;;;16.17;11.13;;;;;;;;;;4886617;28;20246;-78
2021/01/29 00:44:27;;;;;;;15.73;11.50;;;;;;;;;;4883672;28;20235;-77
2021/01/29 00:46:50;;;;;;;13.60;10.43;;;;;;;;;;4881657;28;20200;-81
2021/01/29 00:49:12;;;;;;;17.03;11.27;;;;;;;;;;4888122;28;20193;-77
2021/01/29 00:51:35;;;;;;;16.57;11.50;;;1.60;99.90;;;;;;4885359;28;20669;-78
2021/01/29 00:53:57;;;;;;;19.57;13.27;;;;;;;;;;4872431;28;20197;-77
2021/01/29 00:56:28;;;;;;;19.33;12.63;;;;;;;;;;4893795;28;20251;-77
2021/01/29 00:59:02;;;;;;;20.33;12.13;;;;;;;;;;4891646;28;20212;-77
2021/01/29 01:01:51;;;;;;;18.47;12.10;;;;;;;;;;4890090;28;20274;-78
2021/01/29 01:04:13;;;;;;;18.30;13.40;;;;;;;;;;4881125;28;20258;-76
2021/01/29 01:06:36;;;;;;;17.87;11.40;;;1.70;99.90;;;;;;4885859;28;20189;-79
2021/01/29 01:09:21;;;;;;;17.97;12.03;;;;;;;;;;4893932;28;20189;-78
2021/01/29 01:11:43;;;;;;;17.90;11.80;;;;;;;;;;4888845;28;20275;-78
2021/01/29 01:14:24;;;;;;;19.30;12.10;;;;;;;;;;4889834;28;20181;-79
2021/01/29 01:17:09;;;;;;;18.73;12.43;;;;;;;;;;4872255;28;20192;-80
2021/01/29 01:19:49;;;;;;;20.23;13.53;;;;;;;;;;4885171;28;20618;-79
2021/01/29 01:22:12;;;;;;;19.53;13.07;;;1.70;99.90;;;;;;4888015;28;20255;-78
2021/01/29 01:24:54;;;;;;;19.93;11.77;;;;;;;;;;4888294;28;20229;-79
2021/01/29 01:27:19;;;;;;;17.83;11.37;;;1.70;99.90;;;;;;4886566;28;20200;-79
2021/01/29 01:29:47;;;;;;;22.17;13.43;;;;;;;;;;4887018;28;20239;-79
2021/01/29 01:32:09;;;;;;;21.63;12.90;;;;;;;;;;4885787;28;20193;-79
2021/01/29 01:35:01;;;;;;;18.63;12.20;;;;;;;;;;4866008;28;20263;-77
2021/01/29 01:37:27;;;;;;;14.63;10.30;;;1.70;99.90;;;;;;4887223;28;20209;-80
2021/01/29 01:40:10;;;;;;;19.10;10.03;;;3.40;99.90;;;;;;4889223;28;20234;-78
2021/01/29 01:42:32;;;;;;;16.10;9.97;;;;;;;;;;4869428;28;20193;-78
2021/01/29 01:44:54;;;;;;;17.50;11.33;;;;;;;;;;4884956;28;20619;-79
2021/01/29 01:47:32;;;;;;;17.50;10.77;;;1.70;99.90;;;;;;4884422;28;20228;-78
2021/01/29 01:50:17;;;;;;;20.40;12.20;;;1.60;99.90;;;;;;4885850;28;20665;-79
2021/01/29 01:52:41;;;;;;;20.67;12.73;;;1.70;99.90;;;;;;4888092;28;20242;-78
2021/01/29 01:55:29;;;;;;;17.23;11.10;;;1.60;99.90;;;;;;4885740;28;20213;-79
2021/01/29 01:58:06;;;;;;;15.47;10.20;;;1.60;99.90;;;;;;4889891;28;20226;-77
2021/01/29 02:00:48;;;;;;;15.83;10.57;;;;;;;;;;4887009;28;20183;-76
2021/01/29 02:03:29;;;;;;;13.03;8.83;;;1.50;99.90;;;;;;4887230;28;20251;-79
2021/01/29 02:06:24;;;;;;;15.60;8.73;;;1.60;99.90;;;;;;4841502;28;20210;-78
2021/01/29 02:09:09;;;;;;;13.90;9.10;;;1.50;99.90;;;;;;4884582;28;20193;-78
2021/01/29 02:11:50;;;;;;;14.43;9.63;;;;;;;;;;4891564;28;20246;-78
2021/01/29 02:14:32;;;;;;;14.53;9.40;;;;;;;;;;4886434;28;20185;-76
2021/01/29 02:17:29;;;;;;;12.60;8.20;;;1.50;99.90;;;;;;4886333;28;20217;-75
2021/01/29 02:20:50;;;;;;;14.23;8.77;;;1.40;99.90;;;;;;4887772;28;20215;-77
2021/01/29 02:24:15;;;;;;;12.17;7.87;;;1.40;99.90;;;;;;4877321;28;20675;-76
2021/01/29 02:27:41;;;;;;;14.13;9.27;;;1.30;99.90;;;;;;4888487;28;20266;-77
2021/01/29 02:31:05;;;;;;;14.27;9.67;;;1.40;99.90;;;;;;4803424;28;20245;-77
2021/01/29 02:34:16;;;;;;;12.13;8.63;;;1.40;99.90;;;;;;4809437;28;20242;-76
2021/01/29 02:37:22;;;;;;;13.47;9.00;;;1.30;99.90;;;;;;4881443;28;20617;-74
2021/01/29 02:40:13;;;;;;;13.13;8.70;;;1.30;95.10;;;;;;4883515;28;20194;-76
2021/01/29 02:43:14;;;;;;;10.57;7.63;;;1.30;92.30;;;;;;4869154;28;20198;-74
2021/01/29 02:46:04;;;;;;;12.60;8.80;;;1.30;86.20;;;;;;4885809;28;20515;-76
2021/01/29 02:48:43;;;;;;;14.17;9.33;;;1.10;86.90;;;;;;4880483;28;20631;-75
2021/01/29 02:51:29;;;;;;;12.53;8.27;;;1.20;84.00;;;;;;4887559;28;20216;-76
2021/01/29 02:54:35;;;;;;;14.07;9.30;;;1.20;85.90;;;;;;4864299;28;20664;-76
2021/01/29 02:57:29;;;;;;;13.10;8.87;;;1.10;84.30;;;;;;4894526;28;20220;-75
2021/01/29 03:00:19;;;;;;;13.33;8.57;;;1.10;81.20;;;;;;4885949;28;20665;-76
2021/01/29 03:02:50;;;;;;;11.30;7.73;;;1.10;80.50;;;;;;4887245;28;20224;-76
2021/01/29 03:05:23;;;;;;;11.50;7.33;;;1.90;79.40;;;;;;4892995;28;20201;-75
2021/01/29 03:07:52;;;;;;;11.37;7.73;;;1.10;75.60;;;;;;4892477;28;20185;-76
2021/01/29 03:10:38;;;;;;;10.37;6.77;;;1.00;70.90;;;;;;4884652;28;20177;-75
2021/01/29 03:13:26;;;;;;;9.97;7.10;;;1.00;67.70;;;;;;4886814;28;21216;-76
2021/01/29 03:16:13;;;;;;;8.57;6.07;;;0.90;63.10;;;;;;4879854;28;20205;-75
2021/01/29 03:18:58;;;;;;;6.63;5.23;;;0.90;48.00;;;;;;4884897;28;20239;-76
2021/01/29 03:21:43;;;;;;;7.43;5.03;;;0.90;44.30;;;;;;4884602;28;20606;-75
2021/01/29 03:24:28;;;;;;;8.13;5.70;;;0.90;47.30;;;;;;4887211;28;20716;-74
2021/01/29 03:27:15;;;;;;;8.37;6.03;;;0.80;51.40;;;;;;4885825;28;20181;-77
2021/01/29 03:30:00;;;;;;;10.33;6.13;;;0.80;47.60;;;;;;4884755;28;20227;-76
2021/01/29 03:32:45;;;;;;;7.03;4.77;;;0.80;41.50;;;;;;4884506;28;21006;-76
2021/01/29 03:35:30;;;;;;;8.27;5.10;;;0.70;39.90;;;;;;4887425;28;20173;-75
2021/01/29 03:38:16;;;;;;;6.43;5.03;;;0.60;34.10;;;;;;4886763;28;20222;-76
2021/01/29 03:41:05;;;;;;;5.57;3.93;;;0.60;29.30;;;;;;4884666;28;20220;-76
2021/01/29 03:43:55;;;;;;;5.17;3.63;;;0.60;25.60;;;;;;4883948;28;20229;-75
2021/01/29 03:46:45;;;;;;;5.27;3.97;;;0.50;19.30;;;;;;4884807;28;20223;-76
2021/01/29 03:49:40;;;;;;;5.63;3.30;;;0.50;21.30;;;;;;4875879;28;20630;-76
2021/01/29 03:52:29;;;;;;;6.37;4.73;;;0.40;22.90;;;;;;4887705;28;20987;-75
2021/01/29 03:55:19;;;;;;;5.77;4.40;;;0.40;22.20;;;;;;4884748;28;20578;-75
2021/01/29 03:58:07;;;;;;;6.00;4.27;;;0.40;23.80;;;;;;4884834;28;20192;-75
2021/01/29 04:00:54;;;;;;;5.70;3.97;;;0.40;13.00;;;;;;4888330;28;20465;-75
2021/01/29 04:03:41;;;;;;;3.17;2.40;;;0.40;1.80;;;;;;4886731;28;20255;-77
2021/01/29 04:06:26;;;;;;;3.17;2.20;;;0.30;1.00;;;;;;4884776;28;20246;-76
2021/01/29 04:09:11;;;;;;;2.67;2.20;;;0.20;1.00;;;;;;4884223;28;21056;-76
2021/01/29 04:11:57;;;;;;;4.70;3.27;;;0.10;1.00;;;;;;4884272;28;21205;-75
2021/01/29 04:14:38;;;;;;;4.63;3.20;;;0.10;1.00;;;;;;4886099;28;20625;-76
2021/01/29 04:17:05;;;;;;;3.73;3.27;;;0.10;1.00;;;;;;4885069;28;20243;-74
2021/01/29 04:19:33;;;;;;;4.53;2.87;;;0.10;1.00;;;;;;4888191;28;20623;-76
2021/01/29 04:22:02;;;;;;;4.57;3.57;;;0.10;1.00;;;;;;4884061;28;20672;-76
2021/01/29 04:24:27;;;;;;;5.07;3.70;;;0.00;1.00;;;;;;4884591;28;21178;-75
2021/01/29 04:26:53;;;;;;;6.07;3.97;;;0.00;1.00;;;;;;4886923;28;20184;-77
2021/01/29 04:29:17;;;;;;;5.07;3.47;;;0.00;1.00;;;;;;4866057;28;20186;-76
2021/01/29 04:31:40;;;;;;;6.37;3.60;;;-0.10;1.00;;;;;;4893113;28;20189;-76
2021/01/29 04:34:05;;;;;;;4.53;4.13;;;-0.10;1.00;;;;;;4886941;28;20653;-75
2021/01/29 04:36:31;;;;;;;6.40;4.33;;;-0.20;1.00;;;;;;4883636;28;21083;-76
2021/01/29 04:39:01;;;;;;;6.03;4.73;;;-0.20;1.00;;;;;;4884940;28;20661;-76
2021/01/29 04:41:38;;;;;;;5.63;4.00;;;-0.30;1.00;;;;;;4883420;28;20647;-75
2021/01/29 04:44:19;;;;;;;5.33;4.30;;;-0.30;1.00;;;;;;4883748;28;20644;-77
2021/01/29 04:46:57;;;;;;;5.73;3.90;;;-0.40;1.00;;;;;;4883513;28;20583;-76
2021/01/29 04:49:30;;;;;;;7.37;4.50;;;-0.50;1.00;;;;;;4885387;28;20595;-76
2021/01/29 04:52:43;;;;;;;7.07;4.37;;;-0.50;1.00;;;;;;4886496;28;20578;-75
2021/01/29 04:55:42;;;;;;;7.77;4.80;;;-0.60;1.00;;;;;;4824475;28;20633;-75
2021/01/29 04:58:09;;;;;;;7.27;4.83;;;-0.60;1.00;;;;;;4824058;28;20597;-76
2021/01/29 05:01:23;;;;;;;10.93;6.27;;;-0.60;1.00;;;;;;4873947;28;20663;-75
2021/01/29 05:04:52;;;;;;;8.77;5.23;;;-0.70;1.00;;;;;;4883691;28;20649;-75
2021/01/29 05:07:50;;;;;;;9.67;5.20;;;-0.70;1.00;;;;;;4881814;28;20961;-77
2021/01/29 05:10:50;;;;;;;10.73;5.77;;;-0.80;1.00;;;;;;4880330;28;20714;-75
2021/01/29 05:13:47;;;;;;;8.87;5.33;;;-0.80;1.00;;;;;;4891589;28;20672;-75
2021/01/29 05:16:35;;;;;;;7.13;4.80;;;-0.80;1.00;;;;;;4808947;28;21292;-76
2021/01/29 05:19:24;;;;;;;8.23;5.33;;;-1.00;1.00;;;;;;4880162;28;20627;-75
2021/01/29 05:22:12;;;;;;;7.37;4.47;;;-1.00;1.00;;;;;;4881323;28;20586;-75
2021/01/29 05:25:06;;;;;;;7.67;4.63;;;-1.10;1.00;;;;;;4880365;28;20590;-76
2021/01/29 05:27:55;;;;;;;12.13;5.40;;;-1.10;1.00;;;;;;4879515;28;20640;-76
2021/01/29 05:30:46;;;;;;;8.07;5.10;;;-1.30;1.00;;;;;;4883588;28;20590;-75
2021/01/29 05:33:19;;;;;;;8.47;4.93;;;-1.40;1.00;;;;;;4884155;28;20586;-76
2021/01/29 05:35:56;;;;;;;6.93;4.67;;;-1.40;1.00;;;;;;4890013;28;20983;-75
2021/01/29 05:38:59;;;;;;;8.57;5.63;;;-1.50;1.00;;;;;;4887412;28;20593;-76
2021/01/29 05:42:03;;;;;;;10.00;6.43;;;-1.50;1.00;;;;;;4881394;28;20625;-75
2021/01/29 05:45:01;;;;;;;10.33;6.40;;;-1.50;1.00;;;;;;4879720;28;21225;-75
2021/01/29 05:47:56;;;;;;;10.37;7.13;;;-1.50;1.00;;;;;;4887414;28;20582;-75
2021/01/29 05:50:31;;;;;;;12.93;7.77;;;-1.40;1.00;;;;;;4887504;28;20987;-76
2021/01/29 05:53:17;;;;;;;13.13;8.53;;;-1.50;1.00;;;;;;4886387;28;21261;-76
2021/01/29 05:55:50;;;;;;;16.33;8.93;;;-1.50;1.00;;;;;;4858817;28;20731;-75
2021/01/29 05:58:45;;;;;;;16.53;8.87;;;-1.60;1.00;;;;;;4888118;28;20625;-76
2021/01/29 06:01:43;;;;;;;13.07;8.47;;;-1.50;1.00;;;;;;4890546;28;20610;-76
2021/01/29 06:04:47;;;;;;;17.27;7.50;;;-1.50;1.00;;;;;;4891656;28;20641;-75
2021/01/29 06:07:33;;;;;;;11.07;7.20;;;-1.50;1.00;;;;;;4887325;28;20586;-76
2021/01/29 06:10:25;;;;;;;12.67;8.00;;;-1.50;1.00;;;;;;4886821;28;20597;-75
2021/01/29 06:13:08;;;;;;;13.93;8.23;;;-1.50;1.00;;;;;;4895199;28;21267;-76
2021/01/29 06:15:58;;;;;;;10.00;6.93;;;-1.50;1.00;;;;;;4886649;28;20579;-76
2021/01/29 06:18:57;;;;;;;8.00;6.30;;;-1.60;1.00;;;;;;4892143;28;22430;-76
2021/01/29 06:21:38;;;;;;;10.20;7.43;;;-1.60;1.00;;;;;;4891009;28;20602;-76
2021/01/29 06:24:25;;;;;;;11.30;8.27;;;-1.60;1.00;;;;;;4887788;28;20591;-76
2021/01/29 06:27:22;;;;;;;10.87;6.83;;;-1.60;1.00;;;;;;4884361;28;20676;-75
2021/01/29 06:30:02;;;;;;;11.90;7.90;;;-1.60;1.00;;;;;;4863412;28;21005;-76
2021/01/29 06:32:55;;;;;;;10.83;8.33;;;-1.60;1.00;;;;;;4885770;28;20594;-76
2021/01/29 06:35:28;;;;;;;12.63;9.27;;;-1.50;1.00;;;;;;4884629;28;21221;-76
2021/01/29 06:38:02;;;;;;;12.97;10.13;;;-1.50;1.00;;;;;;4879882;28;20626;-75
2021/01/29 06:40:32;;;;;;;12.13;7.67;;;-1.50;1.00;;;;;;4877503;28;20628;-76
2021/01/29 06:43:18;;;;;;;13.17;7.63;;;-1.40;1.00;;;;;;4878063;28;20599;-76
2021/01/29 06:46:06;;;;;;;13.47;7.87;;;-1.40;1.00;;;;;;4877763;28;21117;-76
2021/01/29 06:49:06;;;;;;;13.13;8.03;;;-1.40;1.00;;;;;;4878180;28;21169;-76
2021/01/29 06:51:52;;;;;;;11.67;7.77;;;-1.30;1.00;;;;;;4878424;28;21093;-75
2021/01/29 06:54:44;;;;;;;12.93;7.80;;;-1.20;1.00;;;;;;4878293;28;21398;-75
2021/01/29 06:57:10;;;;;;;10.70;7.73;;;-1.10;1.00;;;;;;4870274;28;21004;-76
2021/01/29 07:00:03;;;;;;;12.87;7.40;;;-1.00;1.00;;;;;;4867797;28;20696;-76
2021/01/29 07:02:59;;;;;;;14.00;7.80;;;-0.90;1.00;;;;;;4888373;28;20652;-75
2021/01/29 07:05:53;;;;;;;13.33;8.77;;;-0.80;1.00;;;;;;4886326;28;20590;-75
2021/01/29 07:08:27;;;;;;;12.47;7.73;;;-0.80;1.00;;;;;;4887084;28;20586;-75
2021/01/29 07:11:19;;;;;;;13.17;8.93;;;-0.80;1.00;;;;;;4885521;28;20591;-76
2021/01/29 07:13:54;;;;;;;16.10;9.37;;;-0.70;1.00;;;;;;4882740;28;21085;-75
2021/01/29 07:16:50;;;;;;;13.50;7.80;;;-0.70;1.00;;;;;;4889557;28;20611;-75
2021/01/29 07:19:29;;;;;;;10.77;7.70;;;-0.60;1.00;;;;;;4888197;28;21025;-76
2021/01/29 07:22:24;;;;;;;14.37;8.00;;;-0.60;1.00;;;;;;4885191;28;20591;-75
2021/01/29 07:24:53;;;;;;;17.67;10.30;;;-0.40;1.00;;;;;;4873957;28;20623;-75
2021/01/29 07:27:29;;;;;;;15.07;10.30;;;-0.40;1.00;;;;;;4891678;28;20629;-75
2021/01/29 07:30:18;;;;;;;15.60;10.40;;;-0.30;1.00;;;;;;4886199;28;20590;-75
2021/01/29 07:32:47;;;;;;;12.43;9.03;;;-0.30;1.00;;;;;;4872970;28;21174;-75
2021/01/29 07:35:17;;;;;;;12.47;7.83;;;-0.20;1.00;;;;;;4888922;28;21233;-75
2021/01/29 07:37:57;;;;;;;12.67;8.30;;;-0.10;1.00;;;;;;4885360;28;20642;-76
2021/01/29 07:40:54;;;;;;;15.27;8.33;;;0.10;1.00;;;;;;4886327;28;21130;-76
2021/01/29 07:43:38;;;;;;;14.40;9.23;;;0.20;1.00;;;;;;4875104;28;20675;-75
2021/01/29 07:46:23;;;;;;;13.73;9.20;;;0.40;1.00;;;;;;4884581;28;20586;-75
2021/01/29 07:48:59;;;;;;;13.00;8.17;;;0.60;1.00;;;;;;4884379;28;20999;-76
2021/01/29 07:51:30;;;;;;;13.13;8.27;;;0.70;1.00;;;;;;4883020;28;20626;-75
2021/01/29 07:54:23;;;;;;;12.40;8.07;;;0.90;1.00;;;;;;4886012;28;20585;-76
2021/01/29 07:56:57;;;;;;;12.30;8.17;;;1.00;1.00;;;;;;4883894;28;20662;-75
2021/01/29 07:59:32;;;;;;;14.67;9.00;;;1.10;1.00;;;;;;4884002;28;20699;-75
2021/01/29 08:02:05;;;;;;;12.67;8.13;;;1.30;1.00;;;;;;4884163;28;20845;-76
2021/01/29 08:04:41;;;;;;;11.43;7.53;;;1.40;1.00;;;;;;4892370;28;21006;-76
2021/01/29 08:07:13;;;;;;;11.53;7.93;;;1.60;1.00;;;;;;4886591;28;20634;-75
2021/01/29 08:09:39;;;;;;;14.30;8.70;;;2.00;75.40;;;;;;4880272;28;20704;-76
2021/01/29 08:12:06;;;;;;;16.33;10.60;;;2.60;99.90;;;;;;4878859;28;21033;-75
2021/01/29 08:15:11;;;;;;;16.50;9.97;;;3.50;1.00;;;;;;4876275;28;20239;-76
2021/01/29 08:17:58;;;;;;;15.37;9.13;;;4.30;99.90;;;;;;4883853;28;21174;-76
2021/01/29 08:20:33;;;;;;;12.10;8.53;;;4.50;1.00;;;;;;4850334;28;20254;-75
2021/01/29 08:23:10;;;;;;;11.43;7.80;;;4.30;1.00;;;;;;4892736;28;20642;-76
2021/01/29 08:26:09;;;;;;;11.60;7.00;;;4.00;1.00;;;;;;4894167;28;20961;-76
2021/01/29 08:28:52;;;;;;;10.80;6.97;;;3.70;1.00;;;;;;4894539;28;20219;-76
2021/01/29 08:31:43;;;;;;;8.90;6.80;;;3.40;1.00;;;;;;4877277;28;20650;-76
2021/01/29 08:35:09;;;;;;;8.80;6.50;;;3.10;1.00;;;;;;4863923;28;20193;-76
2021/01/29 08:37:40;;;;;;;10.40;6.50;;;3.00;1.00;;;;;;4883215;28;20239;-76
2021/01/29 08:40:15;;;;;;;10.70;6.73;;;2.90;1.00;;;;;;4913742;28;20172;-75
2021/01/29 08:42:49;;;;;;;8.97;6.20;;;2.70;1.00;;;;;;4912915;28;20585;-77
2021/01/29 08:45:30;;;;;;;10.13;6.90;;;2.70;1.00;;;;;;4913777;28;20637;-75
2021/01/29 08:48:22;;;;;;;12.37;7.53;;;2.60;1.00;;;;;;4911722;28;20675;-77
2021/01/29 08:51:02;;;;;;;9.97;6.63;;;2.30;31.20;;;;;;4913544;28;20514;-76
2021/01/29 08:53:55;;;;;;;10.23;7.10;;;2.40;15.80;;;;;;4911662;28;20227;-76
2021/01/29 08:56:24;;;;;;;11.80;8.20;;;2.20;93.40;;;;;;4913560;28;20172;-76
2021/01/29 08:58:55;;;;;;;11.63;7.83;;;2.20;99.90;;;;;;4898672;28;20228;-76
2021/01/29 09:01:25;;;;;;;13.20;8.80;;;2.10;99.90;;;;;;4892599;28;20224;-75
2021/01/29 09:03:57;;;;;;;10.60;7.73;;;2.20;99.90;;;;;;4912250;28;20214;-76
2021/01/29 09:06:26;;;;;;;11.73;8.30;;;2.20;99.90;;;;;;4913888;28;20176;-76
2021/01/29 09:08:57;;;;;;;11.00;7.13;;;2.20;99.90;;;;;;4915500;28;20195;-75
2021/01/29 09:11:24;;;;;;;10.40;7.43;;;2.20;99.90;;;;;;4917573;28;20242;-76
2021/01/29 09:13:55;;;;;;;13.50;6.87;;;2.30;99.90;;;;;;4915225;28;20196;-76
2021/01/29 09:16:26;;;;;;;11.70;7.30;;;2.50;99.90;;;;;;4917580;28;20176;-75
2021/01/29 09:18:56;;;;;;;14.23;8.03;;;2.60;99.90;;;;;;4916613;28;20265;-75
2021/01/29 09:21:29;;;;;;;11.17;7.80;;;2.70;99.90;;;;;;4917358;28;20184;-76
2021/01/29 09:24:01;;;;;;;13.43;8.27;;;2.80;77.20;;;;;;4917275;28;20241;-76
2021/01/29 09:26:30;;;;;;;10.53;7.20;;;2.90;1.00;;;;;;4915587;28;20743;-77
2021/01/29 09:29:00;;;;;;;11.47;7.67;;;2.90;1.00;;;;;;4916456;28;20183;-77
2021/01/29 09:31:25;;;;;;;12.83;8.60;;;2.90;1.00;;;;;;4915856;28;20188;-78
2021/01/29 09:33:53;;;;;;;11.77;7.47;;;2.90;1.00;;;;;;4917085;28;20661;-77
2021/01/29 09:36:19;;;;;;;11.07;7.67;;;3.00;1.00;;;;;;4914753;28;20233;-77
2021/01/29 09:38:49;;;;;;;13.47;7.43;;;3.10;1.00;;;;;;4916724;28;20215;-76
2021/01/29 09:41:17;;;;;;;9.90;6.47;;;3.30;1.00;;;;;;4916833;28;20184;-76
2021/01/29 09:43:47;;;;;;;11.43;7.47;;;3.40;1.00;;;;;;4916931;28;20727;-76
2021/01/29 09:46:10;;;;;;;11.47;7.33;;;;;;;;;;4916171;28;20240;-76
2021/01/29 09:48:35;;;;;;;12.77;7.83;;;;;;;;;;4916391;28;20184;-77
2021/01/29 09:51:14;;;;;;;13.60;8.07;;;4.00;1.00;;;;;;4916101;28;20581;-78
2021/01/29 09:53:42;;;;;;;12.77;7.23;;;4.40;1.00;;;;;;4915585;28;20203;-76
2021/01/29 09:56:14;;;;;;;11.90;7.00;;;4.70;1.00;;;;;;4916541;28;20180;-78
2021/01/29 09:58:45;;;;;;;13.47;7.47;;;5.20;1.00;;;;;;4904296;28;20273;-76
2021/01/29 10:01:11;;;;;;;14.80;7.40;;;5.90;1.00;;;;;;4892865;28;20201;-78
2021/01/29 10:03:38;;;;;;;11.07;6.53;;;7.20;1.00;;;;;;4913644;28;20243;-75
2021/01/29 10:06:06;;;;;;;10.13;6.47;;;8.60;1.00;;;;;;4916566;28;20592;-77
2021/01/29 10:08:34;;;;;;;9.80;6.20;;;9.90;1.00;;;;;;4915622;28;20714;-77
2021/01/29 10:11:03;;;;;;;11.07;6.80;;;11.30;1.00;;;;;;4915773;28;20196;-79
2021/01/29 10:13:44;;;;;;;8.53;5.30;;;12.30;1.00;;;;;;4902501;28;20196;-79
2021/01/29 10:16:24;;;;;;;10.93;7.37;;;12.50;1.00;;;;;;4896813;28;20688;-79
2021/01/29 10:18:57;;;;;;;8.60;5.20;;;11.50;1.00;;;;;;4893756;28;20796;-77
2021/01/29 10:21:26;;;;;;;8.17;4.87;;;11.20;1.00;;;;;;4896299;28;20189;-78
2021/01/29 10:23:55;;;;;;;6.67;4.87;;;10.50;1.00;;;;;;4896636;28;20699;-77
2021/01/29 10:26:24;;;;;;;7.37;4.87;;;9.60;1.00;;;;;;4892596;28;20242;-78
2021/01/29 10:29:06;;;;;;;9.33;5.40;;;8.90;1.00;;;;;;4877008;28;20626;-76
2021/01/29 10:31:37;;;;;;;6.70;4.87;;;8.10;1.00;;;;;;4876607;28;20185;-77
2021/01/29 10:34:20;;;;;;;8.80;5.63;;;7.40;1.00;;;;;;4877018;28;20676;-77
2021/01/29 10:36:45;;;;;;;7.00;5.27;;;6.90;1.00;;;;;;4892728;28;20739;-77
2021/01/29 10:39:13;;;;;;;10.73;6.60;;;6.40;1.00;;;;;;4876139;28;20671;-77
2021/01/29 10:41:42;;;;;;;10.80;7.07;;;6.10;1.00;;;;;;4875923;28;20215;-78
2021/01/29 10:44:09;;;;;;;9.70;7.30;;;5.90;1.00;;;;;;4876868;28;20181;-77
2021/01/29 10:47:04;;;;;;;10.60;7.33;;;5.80;1.00;;;;;;4877071;28;20189;-77
2021/01/29 10:49:37;;;;;;;11.80;7.97;;;5.80;1.00;;;;;;4876747;28;20173;-77
2021/01/29 10:52:08;;;;;;;14.33;8.50;;;5.80;1.00;;;;;;4875167;28;20182;-76
2021/01/29 10:54:38;;;;;;;11.73;8.60;;;6.00;1.00;;;;;;4876895;28;20602;-77
2021/01/29 10:57:09;;;;;;;13.20;8.27;;;6.30;1.00;;;;;;4876694;28;20190;-76
2021/01/29 10:59:40;;;;;;;10.20;7.43;;;6.70;1.00;;;;;;4891279;28;20221;-79
2021/01/29 11:02:05;;;;;;;12.63;8.20;;;7.10;1.00;;;;;;4878289;28;20225;-76
2021/01/29 11:04:32;;;;;;;10.57;7.27;;;7.30;99.90;;;;;;4885414;28;20532;-76
2021/01/29 11:06:58;;;;;;;13.47;8.80;;;7.80;1.00;;;;;;4880926;28;20670;-77
2021/01/29 11:09:28;;;;;;;10.10;7.33;;;8.00;1.00;;;;;;4885573;28;20261;-77
2021/01/29 11:12:00;;;;;;;9.20;7.07;;;7.70;1.00;;;;;;4882805;28;20184;-77
2021/01/29 11:14:28;;;;;;;11.77;8.67;;;8.80;1.00;;;;;;4881710;28;20197;-77
2021/01/29 11:17:01;;;;;;;14.50;8.53;;;9.10;99.90;;;;;;4883004;28;20185;-77
2021/01/29 11:19:30;;;;;;;15.77;10.27;;;9.40;1.00;;;;;;4885508;28;20204;-77
2021/01/29 11:22:08;;;;;;;12.00;8.17;;;9.50;99.90;;;;;;4895844;28;20176;-77
2021/01/29 11:24:41;;;;;;;9.73;6.80;;;9.70;1.00;;;;;;4884002;28;20651;-78
2021/01/29 11:27:09;;;;;;;11.73;7.10;;;9.80;1.00;;;;;;4891679;28;20860;-77
2021/01/29 11:29:43;;;;;;;10.07;7.40;;;9.70;1.00;;;;;;4884754;28;20197;-77
2021/01/29 11:32:24;;;;;;;10.90;6.93;;;9.80;1.00;;;;;;4880592;28;20178;-78
2021/01/29 11:34:47;;;;;;;10.60;8.13;;;9.60;1.00;;;;;;4896563;28;20545;-78
2021/01/29 11:37:18;;;;;;;8.93;6.27;;;9.90;96.00;;;;;;4879838;28;20240;-78
2021/01/29 11:39:45;;;;;;;7.67;6.03;;;10.40;1.00;;;;;;4887363;28;20184;-77
2021/01/29 11:42:16;;;;;;;10.53;6.97;;;10.00;1.00;;;;;;4879411;28;20181;-77
2021/01/29 11:44:49;;;;;;;14.07;8.40;;;10.30;29.00;;;;;;4885756;28;20190;-78
2021/01/29 11:47:24;;;;;;;12.30;7.20;;;9.70;1.00;;;;;;4892491;28;20181;-76
2021/01/29 11:49:58;;;;;;;9.00;6.17;;;9.60;1.00;;;;;;4879431;28;20192;-78
2021/01/29 11:52:26;;;;;;;9.80;6.17;;;9.40;1.00;;;;;;4877226;28;20643;-77
2021/01/29 11:55:00;;;;;;;8.70;5.60;;;9.20;1.00;;;;;;4885526;28;20650;-77
2021/01/29 11:57:32;;;;;;;10.07;6.33;;;8.90;1.00;;;;;;4880825;28;20215;-78
2021/01/29 12:00:04;;;;;;;7.60;5.77;;;8.70;1.00;;;;;;4876653;28;20254;-77
2021/01/29 12:02:32;;;;;;;9.17;5.93;;;8.60;1.00;;;;;;4885126;28;20228;-77
2021/01/29 12:05:07;;;;;;;7.97;5.87;;;8.30;1.00;;;;;;4897619;28;20200;-78
2021/01/29 12:07:36;;;;;;;10.33;6.80;;;8.30;1.00;;;;;;4894242;28;20220;-77
2021/01/29 12:10:08;;;;;;;9.17;6.33;;;8.20;1.00;;;;;;4885458;28;20319;-77
2021/01/29 12:12:40;;;;;;;12.37;6.37;;;8.20;1.00;;;;;;4886560;28;20176;-77
2021/01/29 12:15:11;;;;;;;9.70;6.50;;;8.20;1.00;;;;;;4888326;28;20250;-78
2021/01/29 12:17:34;;;;;;;9.67;6.53;;;;;;;;;;4893337;28;20621;-76
2021/01/29 12:20:00;;;;;;;8.27;6.33;;;8.10;1.00;;;;;;4893046;28;20571;-77
2021/01/29 12:22:28;;;;;;;7.67;6.07;;;7.90;1.00;;;;;;4883158;28;20213;-79
2021/01/29 12:25:23;;;;;;;9.53;6.93;;;7.80;1.00;;;;;;4883928;28;20211;-77
2021/01/29 12:27:52;;;;;;;12.00;8.23;;;7.70;1.00;;;;;;4878977;28;20228;-77
2021/01/29 12:30:21;;;;;;;13.13;8.73;;;7.70;1.00;;;;;;4878910;28;20239;-76
2021/01/29 12:33:02;;;;;;;9.50;7.30;;;7.80;1.00;;;;;;4880932;28;20185;-76
2021/01/29 12:35:27;;;;;;;10.03;7.70;;;7.80;1.00;;;;;;4889985;28;20243;-76
2021/01/29 12:38:25;;;;;;;9.60;7.23;;;7.80;1.00;;;;;;4882380;28;20239;-77
2021/01/29 12:40:57;;;;;;;10.97;8.00;;;7.80;1.00;;;;;;4848322;28;20208;-76
2021/01/29 12:43:27;;;;;;;12.37;8.40;;;7.90;1.00;;;;;;4890116;28;20181;-76
2021/01/29 12:45:53;;;;;;;9.50;7.00;;;7.90;1.00;;;;;;4908010;28;20188;-77
2021/01/29 12:48:23;;;;;;;14.53;9.27;;;8.00;1.00;;;;;;4892870;28;20599;-78
2021/01/29 12:50:56;;;;;;;12.30;9.03;;;8.00;1.00;;;;;;4899166;28;20238;-78
2021/01/29 12:53:27;;;;;;;16.77;11.07;;;8.00;1.00;;;;;;4891442;28;20193;-76
2021/01/29 12:55:55;;;;;;;10.97;7.33;;;7.90;1.00;;;;;;4889066;28;20195;-77
2021/01/29 12:58:19;;;;;;;19.03;10.17;;;7.70;1.00;;;;;;4884538;28;20223;-79
2021/01/29 13:00:44;;;;;;;20.87;10.97;;;7.50;1.00;;;;;;4885176;28;20194;-77
2021/01/29 13:03:36;;;;;;;12.67;8.17;;;7.30;1.00;;;;;;4893003;28;20230;-77
2021/01/29 13:06:15;;;;;;;14.70;11.10;;;7.10;1.00;;;;;;4868042;28;20201;-76
2021/01/29 13:08:56;;;;;;;16.23;11.40;;;7.00;1.00;;;;;;4895943;28;20233;-76
2021/01/29 13:11:36;;;;;;;19.23;14.20;;;6.80;1.00;;;;;;4898821;28;20184;-76
2021/01/29 13:14:10;;;;;;;14.97;11.07;;;6.70;1.00;;;;;;4895757;28;20176;-78
2021/01/29 13:16:40;;;;;;;15.13;11.30;;;6.60;1.00;;;;;;4885241;28;20197;-79
2021/01/29 13:19:06;;;;;;;15.83;11.97;;;6.40;1.00;;;;;;4893243;28;20250;-76
2021/01/29 13:21:33;;;;;;;14.10;10.13;;;6.30;1.00;;;;;;4886726;28;20181;-76
2021/01/29 13:23:56;;;;;;;16.67;11.63;;;6.10;1.00;;;;;;4892949;28;20246;-76
2021/01/29 13:26:34;;;;;;;16.80;11.93;;;6.00;1.00;;;;;;4883760;28;20193;-76
2021/01/29 13:29:03;;;;;;;18.70;12.80;;;5.90;1.00;;;;;;4884366;28;20185;-76
2021/01/29 13:31:30;;;;;;;23.00;15.70;;;5.70;1.00;;;;;;4900964;28;20189;-76
2021/01/29 13:33:56;;;;;;;26.00;16.60;;;5.60;1.00;;;;;;4899765;28;20196;-76
2021/01/29 13:36:24;;;;;;;23.17;15.47;;;5.40;1.00;;;;;;4900467;28;20650;-75
2021/01/29 13:38:47;;;;;;;20.20;13.73;;;;;;;;;;4899891;28;20598;-76
2021/01/29 13:41:12;;;;;;;22.47;16.30;;;5.10;1.00;;;;;;4896746;28;20193;-76
2021/01/29 13:43:35;;;;;;;22.57;15.33;;;5.10;1.00;;;;;;4880609;28;20251;-76
2021/01/29 13:46:01;;;;;;;19.07;12.60;;;5.10;1.00;;;;;;4880764;28;20615;-76
2021/01/29 13:48:23;;;;;;;20.40;13.50;;;5.10;1.00;;;;;;4879569;28;20282;-76
2021/01/29 13:50:48;;;;;;;24.70;16.87;;;5.10;1.00;;;;;;4888021;28;20230;-76
2021/01/29 13:53:14;;;;;;;22.87;14.00;;;5.00;1.00;;;;;;4886870;28;20243;-76
2021/01/29 13:55:40;;;;;;;17.53;12.70;;;5.00;1.00;;;;;;4881379;28;20188;-75
2021/01/29 13:58:07;;;;;;;21.30;14.20;;;4.90;1.00;;;;;;4883144;28;20209;-74